createdAt,value
2019-05-26T00:00:09.537Z,999.04
2019-05-26T00:01:09.313Z,998.99
2019-05-26T00:02:09.302Z,999.02
2019-05-26T00:03:09.291Z,999.00
2019-05-26T00:04:09.278Z,999.05
2019-05-26T00:05:09.270Z,998.95
2019-05-26T00:06:09.325Z,998.95
2019-05-26T00:07:09.245Z,998.92
2019-05-26T00:08:09.234Z,998.93
2019-05-26T00:09:09.223Z,998.84
2019-05-26T00:10:09.297Z,998.95
2019-05-26T00:11:09.200Z,998.85
2019-05-26T00:12:09.262Z,998.84
2019-05-26T00:13:09.176Z,998.86
2019-05-26T00:14:09.164Z,998.83
2019-05-26T00:15:09.154Z,998.85
2019-05-26T00:16:09.158Z,998.88
2019-05-26T00:17:09.131Z,998.83
2019-05-26T00:18:09.187Z,998.81
2019-05-26T00:19:09.108Z,998.88
2019-05-26T00:20:09.100Z,998.84
2019-05-26T00:21:09.087Z,998.74
2019-05-26T00:22:09.075Z,998.83
2019-05-26T00:23:09.068Z,998.85
2019-05-26T00:24:09.121Z,998.90
2019-05-26T00:25:09.042Z,998.86
2019-05-26T00:26:09.031Z,998.87
2019-05-26T00:27:09.019Z,998.90
2019-05-26T00:28:09.010Z,998.94
2019-05-26T00:29:08.996Z,998.94
2019-05-26T00:30:09.197Z,998.83
2019-05-26T00:31:08.975Z,998.96
2019-05-26T00:32:08.963Z,998.89
2019-05-26T00:33:08.952Z,998.92
2019-05-26T00:34:08.950Z,998.86
2019-05-26T00:35:08.946Z,998.81
2019-05-26T00:36:08.986Z,998.86
2019-05-26T00:37:08.908Z,998.90
2019-05-26T00:38:08.898Z,998.92
2019-05-26T00:39:08.888Z,998.90
2019-05-26T00:40:08.874Z,998.86
2019-05-26T00:41:08.861Z,998.87
2019-05-26T00:42:08.924Z,998.89
2019-05-26T00:43:08.840Z,998.88
2019-05-26T00:44:08.828Z,998.88
2019-05-26T00:45:08.817Z,998.86
2019-05-26T00:46:08.806Z,998.81
2019-05-26T00:47:08.796Z,998.83
2019-05-26T00:48:08.994Z,998.86
2019-05-26T00:49:08.771Z,998.78
2019-05-26T00:50:08.763Z,998.80
2019-05-26T00:51:08.752Z,998.80
2019-05-26T00:52:08.746Z,998.80
2019-05-26T00:53:08.727Z,998.79
2019-05-26T00:54:08.785Z,998.81
2019-05-26T00:55:08.709Z,998.76
2019-05-26T00:56:08.692Z,998.78
2019-05-26T00:57:08.685Z,998.73
2019-05-26T00:58:08.673Z,998.76
2019-05-26T00:59:08.659Z,998.68
2019-05-26T01:00:08.722Z,998.70
2019-05-26T01:01:08.639Z,998.73
2019-05-26T01:02:08.656Z,998.74
2019-05-26T01:03:08.613Z,998.77
2019-05-26T01:04:08.602Z,998.79
2019-05-26T01:05:08.590Z,998.80
2019-05-26T01:06:08.790Z,998.74
2019-05-26T01:07:08.567Z,998.72
2019-05-26T01:08:08.556Z,998.75
2019-05-26T01:09:08.546Z,998.75
2019-05-26T01:10:08.533Z,998.72
2019-05-26T01:11:08.521Z,998.66
2019-05-26T01:12:08.578Z,998.66
2019-05-26T01:13:08.500Z,998.70
2019-05-26T01:14:08.492Z,998.71
2019-05-26T01:15:08.477Z,998.73
2019-05-26T01:16:08.465Z,998.72
2019-05-26T01:17:08.455Z,998.74
2019-05-26T01:18:08.508Z,998.75
2019-05-26T01:19:08.433Z,998.68
2019-05-26T01:20:08.422Z,998.65
2019-05-26T01:21:08.409Z,998.70
2019-05-26T01:22:08.398Z,998.69
2019-05-26T01:23:08.454Z,998.68
2019-05-26T01:24:08.444Z,998.76
2019-05-26T01:25:08.365Z,998.67
2019-05-26T01:26:08.352Z,998.73
2019-05-26T01:27:08.343Z,998.66
2019-05-26T01:28:08.334Z,998.71
2019-05-26T01:29:08.320Z,998.74
2019-05-26T01:30:08.375Z,998.65
2019-05-26T01:31:08.297Z,998.65
2019-05-26T01:32:08.285Z,998.72
2019-05-26T01:33:08.273Z,998.71
2019-05-26T01:34:08.264Z,998.72
2019-05-26T01:35:08.259Z,998.69
2019-05-26T01:36:08.315Z,998.75
2019-05-26T01:37:08.229Z,998.73
2019-05-26T01:38:22.456Z,998.72
2019-05-26T01:39:09.205Z,998.70
2019-05-26T01:40:08.197Z,998.74
2019-05-26T01:41:08.183Z,998.68
2019-05-26T01:42:08.411Z,998.66
2019-05-26T01:43:08.163Z,998.69
2019-05-26T01:44:08.159Z,998.70
2019-05-26T01:45:08.146Z,998.64
2019-05-26T01:46:08.127Z,998.67
2019-05-26T01:47:08.122Z,998.66
2019-05-26T01:48:08.177Z,998.68
2019-05-26T01:49:08.094Z,998.64
2019-05-26T01:50:08.084Z,998.64
2019-05-26T01:51:08.071Z,998.71
2019-05-26T01:52:08.061Z,998.69
2019-05-26T01:53:08.052Z,998.72
2019-05-26T01:54:08.102Z,998.78
2019-05-26T01:55:08.030Z,998.69
2019-05-26T01:56:08.014Z,998.75
2019-05-26T01:57:08.004Z,998.77
2019-05-26T01:58:07.997Z,998.77
2019-05-26T01:59:07.981Z,998.77
2019-05-26T02:00:08.036Z,998.76
2019-05-26T02:01:07.959Z,998.76
2019-05-26T02:02:07.951Z,998.70
2019-05-26T02:03:07.935Z,998.72
2019-05-26T02:04:07.926Z,998.68
2019-05-26T02:05:07.917Z,998.73
2019-05-26T02:06:07.984Z,998.68
2019-05-26T02:07:07.890Z,998.65
2019-05-26T02:08:11.664Z,998.64
2019-05-26T02:09:07.869Z,998.66
2019-05-26T02:10:07.858Z,998.76
2019-05-26T02:11:07.846Z,998.69
2019-05-26T02:12:08.044Z,998.63
2019-05-26T02:13:07.822Z,998.72
2019-05-26T02:14:07.813Z,998.68
2019-05-26T02:15:07.803Z,998.67
2019-05-26T02:16:07.792Z,998.63
2019-05-26T02:17:07.778Z,998.63
2019-05-26T02:18:07.878Z,998.65
2019-05-26T02:19:07.760Z,998.66
2019-05-26T02:20:07.751Z,998.60
2019-05-26T02:21:07.853Z,998.63
2019-05-26T02:22:07.720Z,998.58
2019-05-26T02:23:07.713Z,998.52
2019-05-26T02:24:07.770Z,998.51
2019-05-26T02:25:07.689Z,998.51
2019-05-26T02:26:07.676Z,998.59
2019-05-26T02:27:07.670Z,998.60
2019-05-26T02:28:07.657Z,998.55
2019-05-26T02:29:07.658Z,998.44
2019-05-26T02:30:07.704Z,998.54
2019-05-26T02:31:07.623Z,998.47
2019-05-26T02:32:07.611Z,998.44
2019-05-26T02:33:07.599Z,998.43
2019-05-26T02:34:07.587Z,998.43
2019-05-26T02:35:07.576Z,998.47
2019-05-26T02:36:07.774Z,998.50
2019-05-26T02:37:07.556Z,998.42
2019-05-26T02:38:07.544Z,998.39
2019-05-26T02:39:07.534Z,998.38
2019-05-26T02:40:07.536Z,998.45
2019-05-26T02:41:07.509Z,998.40
2019-05-26T02:42:07.564Z,998.41
2019-05-26T02:43:07.488Z,998.42
2019-05-26T02:44:07.474Z,998.47
2019-05-26T02:45:07.470Z,998.46
2019-05-26T02:46:07.471Z,998.45
2019-05-26T02:47:07.448Z,998.40
2019-05-26T02:48:07.496Z,998.37
2019-05-26T02:49:07.441Z,998.40
2019-05-26T02:50:07.413Z,998.40
2019-05-26T02:51:07.414Z,998.35
2019-05-26T02:52:07.389Z,998.41
2019-05-26T02:53:07.375Z,998.41
2019-05-26T02:54:07.432Z,998.34
2019-05-26T02:55:07.353Z,998.48
2019-05-26T02:56:07.342Z,998.39
2019-05-26T02:57:07.329Z,998.44
2019-05-26T02:58:07.317Z,998.40
2019-05-26T02:59:07.342Z,998.37
2019-05-26T03:00:07.362Z,998.38
2019-05-26T03:01:07.283Z,998.31
2019-05-26T03:02:07.285Z,998.43
2019-05-26T03:03:07.267Z,998.38
2019-05-26T03:04:07.288Z,998.35
2019-05-26T03:05:07.240Z,998.35
2019-05-26T03:06:07.456Z,998.28
2019-05-26T03:07:07.216Z,998.31
2019-05-26T03:08:07.205Z,998.37
2019-05-26T03:09:22.113Z,998.38
2019-05-26T03:10:08.183Z,998.35
2019-05-26T03:11:07.169Z,998.35
2019-05-26T03:12:07.225Z,998.35
2019-05-26T03:13:07.146Z,998.32
2019-05-26T03:14:07.135Z,998.35
2019-05-26T03:15:07.128Z,998.35
2019-05-26T03:16:07.113Z,998.32
2019-05-26T03:17:07.106Z,998.35
2019-05-26T03:18:07.157Z,998.31
2019-05-26T03:19:07.090Z,998.37
2019-05-26T03:20:07.069Z,998.33
2019-05-26T03:21:07.057Z,998.37
2019-05-26T03:22:07.043Z,998.37
2019-05-26T03:23:07.034Z,998.31
2019-05-26T03:24:07.095Z,998.41
2019-05-26T03:25:07.012Z,998.41
2019-05-26T03:26:07.000Z,998.34
2019-05-26T03:27:06.989Z,998.37
2019-05-26T03:28:06.985Z,998.36
2019-05-26T03:29:06.965Z,998.38
2019-05-26T03:30:07.163Z,998.35
2019-05-26T03:31:06.944Z,998.36
2019-05-26T03:32:06.931Z,998.35
2019-05-26T03:33:06.941Z,998.34
2019-05-26T03:34:06.906Z,998.40
2019-05-26T03:35:06.901Z,998.38
2019-05-26T03:36:10.371Z,998.32
2019-05-26T03:37:06.874Z,998.45
2019-05-26T03:38:06.860Z,998.40
2019-05-26T03:39:06.855Z,998.32
2019-05-26T03:40:06.840Z,998.36
2019-05-26T03:41:06.825Z,998.30
2019-05-26T03:42:07.026Z,998.33
2019-05-26T03:43:06.802Z,998.36
2019-05-26T03:44:06.790Z,998.34
2019-05-26T03:45:06.779Z,998.32
2019-05-26T03:46:06.769Z,998.33
2019-05-26T03:47:06.756Z,998.31
2019-05-26T03:48:06.818Z,998.31
2019-05-26T03:49:06.736Z,998.32
2019-05-26T03:50:06.731Z,998.29
2019-05-26T03:51:06.712Z,998.28
2019-05-26T03:52:06.699Z,998.32
2019-05-26T03:53:06.825Z,998.29
2019-05-26T03:54:06.747Z,998.29
2019-05-26T03:55:06.667Z,998.35
2019-05-26T03:56:06.655Z,998.32
2019-05-26T03:57:06.642Z,998.23
2019-05-26T03:58:06.729Z,998.33
2019-05-26T03:59:06.638Z,998.37
2019-05-26T04:00:06.713Z,998.35
2019-05-26T04:01:06.595Z,998.29
2019-05-26T04:02:06.584Z,998.32
2019-05-26T04:03:06.575Z,998.29
2019-05-26T04:04:06.563Z,998.30
2019-05-26T04:05:06.557Z,998.28
2019-05-26T04:06:06.603Z,998.26
2019-05-26T04:07:06.630Z,998.20
2019-05-26T04:08:06.517Z,998.18
2019-05-26T04:09:06.510Z,998.25
2019-05-26T04:10:06.642Z,998.17
2019-05-26T04:11:06.484Z,998.30
2019-05-26T04:12:06.548Z,998.28
2019-05-26T04:13:06.456Z,998.31
2019-05-26T04:14:06.461Z,998.23
2019-05-26T04:15:06.436Z,998.28
2019-05-26T04:16:06.434Z,998.30
2019-05-26T04:17:06.410Z,998.33
2019-05-26T04:18:06.466Z,998.29
2019-05-26T04:19:06.395Z,998.29
2019-05-26T04:20:06.382Z,998.36
2019-05-26T04:21:06.381Z,998.33
2019-05-26T04:22:06.355Z,998.35
2019-05-26T04:23:06.346Z,998.37
2019-05-26T04:24:06.397Z,998.33
2019-05-26T04:25:06.346Z,998.33
2019-05-26T04:26:06.319Z,998.28
2019-05-26T04:27:06.303Z,998.28
2019-05-26T04:28:06.300Z,998.32
2019-05-26T04:29:06.284Z,998.32
2019-05-26T04:30:06.342Z,998.32
2019-05-26T04:31:06.266Z,998.36
2019-05-26T04:32:06.241Z,998.27
2019-05-26T04:33:06.234Z,998.32
2019-05-26T04:34:06.218Z,998.32
2019-05-26T04:35:06.214Z,998.28
2019-05-26T04:36:06.303Z,998.30
2019-05-26T04:37:06.216Z,998.29
2019-05-26T04:38:06.174Z,998.33
2019-05-26T04:39:06.173Z,998.38
2019-05-26T04:40:24.750Z,998.39
2019-05-26T04:41:07.204Z,998.35
2019-05-26T04:42:06.145Z,998.34
2019-05-26T04:43:06.146Z,998.32
2019-05-26T04:44:06.112Z,998.36
2019-05-26T04:45:06.217Z,998.35
2019-05-26T04:46:06.095Z,998.32
2019-05-26T04:47:06.216Z,998.44
2019-05-26T04:48:06.086Z,998.45
2019-05-26T04:49:06.058Z,998.38
2019-05-26T04:50:06.042Z,998.39
2019-05-26T04:51:06.034Z,998.40
2019-05-26T04:52:06.020Z,998.37
2019-05-26T04:53:07.381Z,998.42
2019-05-26T04:54:06.059Z,998.37
2019-05-26T04:55:06.036Z,998.43
2019-05-26T04:56:05.977Z,998.37
2019-05-26T04:57:05.977Z,998.37
2019-05-26T04:58:05.957Z,998.35
2019-05-26T04:59:06.152Z,998.40
2019-05-26T05:00:05.929Z,998.39
2019-05-26T05:01:05.923Z,998.36
2019-05-26T05:02:05.931Z,998.31
2019-05-26T05:03:05.914Z,998.38
2019-05-26T05:04:05.905Z,998.35
2019-05-26T05:05:05.969Z,998.34
2019-05-26T05:06:05.862Z,998.29
2019-05-26T05:07:05.852Z,998.25
2019-05-26T05:08:05.864Z,998.28
2019-05-26T05:09:05.833Z,998.27
2019-05-26T05:10:05.822Z,998.28
2019-05-26T05:11:05.879Z,998.31
2019-05-26T05:12:05.796Z,998.26
2019-05-26T05:13:05.788Z,998.25
2019-05-26T05:14:05.771Z,998.30
2019-05-26T05:15:05.757Z,998.30
2019-05-26T05:16:05.748Z,998.27
2019-05-26T05:17:05.828Z,998.28
2019-05-26T05:18:05.747Z,998.23
2019-05-26T05:19:05.733Z,998.21
2019-05-26T05:20:05.700Z,998.19
2019-05-26T05:21:05.689Z,998.22
2019-05-26T05:22:05.682Z,998.23
2019-05-26T05:23:05.737Z,998.26
2019-05-26T05:24:05.656Z,998.23
2019-05-26T05:25:13.833Z,998.22
2019-05-26T05:26:06.634Z,998.21
2019-05-26T05:27:05.622Z,998.18
2019-05-26T05:28:05.613Z,998.20
2019-05-26T05:29:05.666Z,998.24
2019-05-26T05:30:05.588Z,998.31
2019-05-26T05:31:05.578Z,998.26
2019-05-26T05:32:05.567Z,998.25
2019-05-26T05:33:05.560Z,998.18
2019-05-26T05:34:05.543Z,998.13
2019-05-26T05:35:05.741Z,998.22
2019-05-26T05:36:05.526Z,998.15
2019-05-26T05:37:05.510Z,998.20
2019-05-26T05:38:05.503Z,998.17
2019-05-26T05:39:05.486Z,998.05
2019-05-26T05:40:05.474Z,998.13
2019-05-26T05:41:05.534Z,998.17
2019-05-26T05:42:05.454Z,998.14
2019-05-26T05:43:05.442Z,998.16
2019-05-26T05:44:05.441Z,998.11
2019-05-26T05:45:05.419Z,998.18
2019-05-26T05:46:05.418Z,998.09
2019-05-26T05:47:05.486Z,998.14
2019-05-26T05:48:05.385Z,998.12
2019-05-26T05:49:05.374Z,998.11
2019-05-26T05:50:05.364Z,998.08
2019-05-26T05:51:05.354Z,998.17
2019-05-26T05:52:05.340Z,998.08
2019-05-26T05:53:05.403Z,998.10
2019-05-26T05:54:05.373Z,998.13
2019-05-26T05:55:05.305Z,998.14
2019-05-26T05:56:05.341Z,998.15
2019-05-26T05:57:05.286Z,998.13
2019-05-26T05:58:05.272Z,998.03
2019-05-26T05:59:05.371Z,998.05
2019-05-26T06:00:05.250Z,998.12
2019-05-26T06:01:05.241Z,998.03
2019-05-26T06:02:05.227Z,998.10
2019-05-26T06:03:05.216Z,998.11
2019-05-26T06:04:05.203Z,998.09
2019-05-26T06:05:05.259Z,998.05
2019-05-26T06:06:05.204Z,998.08
2019-05-26T06:07:05.173Z,998.07
2019-05-26T06:08:05.162Z,998.11
2019-05-26T06:09:05.147Z,998.06
2019-05-26T06:10:05.139Z,998.12
2019-05-26T06:11:16.141Z,998.08
2019-05-26T06:12:06.112Z,998.12
2019-05-26T06:13:05.105Z,998.11
2019-05-26T06:14:05.092Z,998.02
2019-05-26T06:15:05.082Z,998.07
2019-05-26T06:16:05.073Z,998.10
2019-05-26T06:17:05.123Z,998.07
2019-05-26T06:18:05.049Z,998.08
2019-05-26T06:19:05.036Z,998.07
2019-05-26T06:20:05.024Z,998.09
2019-05-26T06:21:05.016Z,998.09
2019-05-26T06:22:05.004Z,998.06
2019-05-26T06:23:05.065Z,998.00
2019-05-26T06:24:04.979Z,997.99
2019-05-26T06:25:04.968Z,998.05
2019-05-26T06:26:04.958Z,998.06
2019-05-26T06:27:04.946Z,998.01
2019-05-26T06:28:04.937Z,997.99
2019-05-26T06:29:05.132Z,997.97
2019-05-26T06:30:04.911Z,997.98
2019-05-26T06:31:04.899Z,998.03
2019-05-26T06:32:05.037Z,998.00
2019-05-26T06:33:04.877Z,998.01
2019-05-26T06:34:04.881Z,998.08
2019-05-26T06:35:05.262Z,998.09
2019-05-26T06:36:04.865Z,998.01
2019-05-26T06:37:04.835Z,998.08
2019-05-26T06:38:04.822Z,998.05
2019-05-26T06:39:04.813Z,998.09
2019-05-26T06:40:04.804Z,998.04
2019-05-26T06:41:05.002Z,998.02
2019-05-26T06:42:04.778Z,998.11
2019-05-26T06:43:04.767Z,998.05
2019-05-26T06:44:04.755Z,998.07
2019-05-26T06:45:04.762Z,998.02
2019-05-26T06:46:04.734Z,997.98
2019-05-26T06:47:04.935Z,998.05
2019-05-26T06:48:04.714Z,998.05
2019-05-26T06:49:04.700Z,998.00
2019-05-26T06:50:04.689Z,998.08
2019-05-26T06:51:04.678Z,998.14
2019-05-26T06:52:04.670Z,998.10
2019-05-26T06:53:04.723Z,998.13
2019-05-26T06:54:04.650Z,998.15
2019-05-26T06:55:04.634Z,998.13
2019-05-26T06:56:04.621Z,998.13
2019-05-26T06:57:04.611Z,998.11
2019-05-26T06:58:04.599Z,998.09
2019-05-26T06:59:04.658Z,998.17
2019-05-26T07:00:04.576Z,998.14
2019-05-26T07:01:04.583Z,998.09
2019-05-26T07:02:04.575Z,998.12
2019-05-26T07:03:04.547Z,998.11
2019-05-26T07:04:04.531Z,998.09
2019-05-26T07:05:04.733Z,998.12
2019-05-26T07:06:04.529Z,998.15
2019-05-26T07:07:04.498Z,998.14
2019-05-26T07:08:04.485Z,998.08
2019-05-26T07:09:04.483Z,998.08
2019-05-26T07:10:04.464Z,998.16
2019-05-26T07:11:04.520Z,998.12
2019-05-26T07:12:04.447Z,998.12
2019-05-26T07:13:04.430Z,998.10
2019-05-26T07:14:04.419Z,998.11
2019-05-26T07:15:04.414Z,998.16
2019-05-26T07:16:04.405Z,998.13
2019-05-26T07:17:04.462Z,998.11
2019-05-26T07:18:04.449Z,998.12
2019-05-26T07:19:04.362Z,998.03
2019-05-26T07:20:04.350Z,998.01
2019-05-26T07:21:04.338Z,998.06
2019-05-26T07:22:04.332Z,998.08
2019-05-26T07:23:06.227Z,997.99
2019-05-26T07:24:04.306Z,998.06
2019-05-26T07:25:04.294Z,998.00
2019-05-26T07:26:04.288Z,998.05
2019-05-26T07:27:04.271Z,998.03
2019-05-26T07:28:04.267Z,997.98
2019-05-26T07:29:04.315Z,997.95
2019-05-26T07:30:04.241Z,997.95
2019-05-26T07:31:04.229Z,997.96
2019-05-26T07:32:04.217Z,997.97
2019-05-26T07:33:04.204Z,998.00
2019-05-26T07:34:04.195Z,997.98
2019-05-26T07:35:04.511Z,997.95
2019-05-26T07:36:04.175Z,997.93
2019-05-26T07:37:04.162Z,997.97
2019-05-26T07:38:04.149Z,997.90
2019-05-26T07:39:04.140Z,997.94
2019-05-26T07:40:04.128Z,997.92
2019-05-26T07:41:04.187Z,997.90
2019-05-26T07:42:10.538Z,997.88
2019-05-26T07:43:05.095Z,997.89
2019-05-26T07:44:04.084Z,997.89
2019-05-26T07:45:04.072Z,997.87
2019-05-26T07:46:04.062Z,997.85
2019-05-26T07:47:04.118Z,997.88
2019-05-26T07:48:04.041Z,997.86
2019-05-26T07:49:04.031Z,997.83
2019-05-26T07:50:04.020Z,997.80
2019-05-26T07:51:04.014Z,997.80
2019-05-26T07:52:03.997Z,997.79
2019-05-26T07:53:04.052Z,997.75
2019-05-26T07:54:04.256Z,997.77
2019-05-26T07:55:03.963Z,997.72
2019-05-26T07:56:03.955Z,997.77
2019-05-26T07:57:03.941Z,997.71
2019-05-26T07:58:03.928Z,997.74
2019-05-26T07:59:03.987Z,997.75
2019-05-26T08:00:03.907Z,997.67
2019-05-26T08:01:03.895Z,997.67
2019-05-26T08:02:03.883Z,997.65
2019-05-26T08:03:03.872Z,997.69
2019-05-26T08:04:03.860Z,997.72
2019-05-26T08:05:04.364Z,997.70
2019-05-26T08:06:03.839Z,997.72
2019-05-26T08:07:03.831Z,997.67
2019-05-26T08:08:12.866Z,997.77
2019-05-26T08:09:04.805Z,997.70
2019-05-26T08:10:03.791Z,997.74
2019-05-26T08:11:03.850Z,997.70
2019-05-26T08:12:03.777Z,997.67
2019-05-26T08:13:03.757Z,997.62
2019-05-26T08:14:03.746Z,997.65
2019-05-26T08:15:03.759Z,997.72
2019-05-26T08:16:03.721Z,997.66
2019-05-26T08:17:03.777Z,997.63
2019-05-26T08:18:03.701Z,997.62
2019-05-26T08:19:03.688Z,997.65
2019-05-26T08:20:03.680Z,997.62
2019-05-26T08:21:03.665Z,997.63
2019-05-26T08:22:03.654Z,997.58
2019-05-26T08:23:03.718Z,997.64
2019-05-26T08:24:03.631Z,997.57
2019-05-26T08:25:03.619Z,997.52
2019-05-26T08:26:03.610Z,997.52
2019-05-26T08:27:03.595Z,997.57
2019-05-26T08:28:03.594Z,997.46
2019-05-26T08:29:03.787Z,997.58
2019-05-26T08:30:03.563Z,997.60
2019-05-26T08:31:03.551Z,997.58
2019-05-26T08:32:03.543Z,997.63
2019-05-26T08:33:03.528Z,997.61
2019-05-26T08:34:03.518Z,997.57
2019-05-26T08:35:03.719Z,997.62
2019-05-26T08:36:03.502Z,997.64
2019-05-26T08:37:03.490Z,997.49
2019-05-26T08:38:03.474Z,997.54
2019-05-26T08:39:03.474Z,997.53
2019-05-26T08:40:03.470Z,997.50
2019-05-26T08:41:03.506Z,997.53
2019-05-26T08:42:03.432Z,997.51
2019-05-26T08:43:03.421Z,997.44
2019-05-26T08:44:03.410Z,997.51
2019-05-26T08:45:03.400Z,997.39
2019-05-26T08:46:03.388Z,997.46
2019-05-26T08:47:03.439Z,997.39
2019-05-26T08:48:03.370Z,997.42
2019-05-26T08:49:03.356Z,997.43
2019-05-26T08:50:03.342Z,997.40
2019-05-26T08:51:03.331Z,997.32
2019-05-26T08:52:03.321Z,997.43
2019-05-26T08:53:03.398Z,997.41
2019-05-26T08:54:03.299Z,997.37
2019-05-26T08:55:03.295Z,997.29
2019-05-26T08:56:03.276Z,997.32
2019-05-26T08:57:03.265Z,997.32
2019-05-26T08:58:03.254Z,997.33
2019-05-26T08:59:03.310Z,997.30
2019-05-26T09:00:03.232Z,997.32
2019-05-26T09:01:03.230Z,997.41
2019-05-26T09:02:03.214Z,997.37
2019-05-26T09:03:03.199Z,997.39
2019-05-26T09:04:03.188Z,997.31
2019-05-26T09:05:03.244Z,997.31
2019-05-26T09:06:03.167Z,997.38
2019-05-26T09:07:03.161Z,997.29
2019-05-26T09:08:03.144Z,997.26
2019-05-26T09:09:03.149Z,997.31
2019-05-26T09:10:03.126Z,997.35
2019-05-26T09:11:03.325Z,997.29
2019-05-26T09:12:03.100Z,997.24
2019-05-26T09:13:03.093Z,997.28
2019-05-26T09:14:03.078Z,997.31
2019-05-26T09:15:03.081Z,997.28
2019-05-26T09:16:03.058Z,997.25
2019-05-26T09:17:03.115Z,997.35
2019-05-26T09:18:03.037Z,997.31
2019-05-26T09:19:03.025Z,997.41
2019-05-26T09:20:03.014Z,997.36
2019-05-26T09:21:03.002Z,997.35
2019-05-26T09:22:02.990Z,997.27
2019-05-26T09:23:03.051Z,997.34
2019-05-26T09:24:02.972Z,997.22
2019-05-26T09:25:02.958Z,997.30
2019-05-26T09:26:02.969Z,997.25
2019-05-26T09:27:02.934Z,997.24
2019-05-26T09:28:02.924Z,997.20
2019-05-26T09:29:03.128Z,997.20
2019-05-26T09:30:02.907Z,997.17
2019-05-26T09:31:02.894Z,997.18
2019-05-26T09:32:02.911Z,997.17
2019-05-26T09:33:02.870Z,997.24
2019-05-26T09:34:02.858Z,997.21
2019-05-26T09:35:02.949Z,997.12
2019-05-26T09:36:02.840Z,997.16
2019-05-26T09:37:02.825Z,997.14
2019-05-26T09:38:02.819Z,997.18
2019-05-26T09:39:02.801Z,997.10
2019-05-26T09:40:02.800Z,997.05
2019-05-26T09:41:02.990Z,997.13
2019-05-26T09:42:02.772Z,997.07
2019-05-26T09:43:14.960Z,996.99
2019-05-26T09:44:03.753Z,997.12
2019-05-26T09:45:02.740Z,997.09
2019-05-26T09:46:02.726Z,997.00
2019-05-26T09:47:02.788Z,996.98
2019-05-26T09:48:02.709Z,996.99
2019-05-26T09:49:02.694Z,997.01
2019-05-26T09:50:02.687Z,996.95
2019-05-26T09:51:02.777Z,996.90
2019-05-26T09:52:02.661Z,996.93
2019-05-26T09:53:02.717Z,997.06
2019-05-26T09:54:02.644Z,996.98
2019-05-26T09:55:02.630Z,996.94
2019-05-26T09:56:02.678Z,996.98
2019-05-26T09:57:02.609Z,996.93
2019-05-26T09:58:02.596Z,996.95
2019-05-26T09:59:02.657Z,996.86
2019-05-26T10:00:02.576Z,996.98
2019-05-26T10:01:02.567Z,996.95
2019-05-26T10:02:02.570Z,996.93
2019-05-26T10:03:02.543Z,996.98
2019-05-26T10:04:02.537Z,996.97
2019-05-26T10:05:02.588Z,996.96
2019-05-26T10:06:02.508Z,997.03
2019-05-26T10:07:02.515Z,996.97
2019-05-26T10:08:02.491Z,996.94
2019-05-26T10:09:02.478Z,997.12
2019-05-26T10:10:02.466Z,997.00
2019-05-26T10:11:02.519Z,996.94
2019-05-26T10:12:02.446Z,996.96
2019-05-26T10:13:02.433Z,997.05
2019-05-26T10:14:02.422Z,996.99
2019-05-26T10:15:02.419Z,997.17
2019-05-26T10:16:02.404Z,997.04
2019-05-26T10:17:02.462Z,997.09
2019-05-26T10:18:02.398Z,997.06
2019-05-26T10:19:02.369Z,996.99
2019-05-26T10:20:02.358Z,997.01
2019-05-26T10:21:02.348Z,997.00
2019-05-26T10:22:02.337Z,996.82
2019-05-26T10:23:02.416Z,997.03
2019-05-26T10:24:02.317Z,997.04
2019-05-26T10:25:02.332Z,997.01
2019-05-26T10:26:02.294Z,997.00
2019-05-26T10:27:02.284Z,996.87
2019-05-26T10:28:02.315Z,996.82
2019-05-26T10:29:02.333Z,996.97
2019-05-26T10:30:02.254Z,996.98
2019-05-26T10:31:02.245Z,997.02
2019-05-26T10:32:02.230Z,997.08
2019-05-26T10:33:02.221Z,996.95
2019-05-26T10:34:02.355Z,997.01
2019-05-26T10:35:02.293Z,996.75
2019-05-26T10:36:02.196Z,996.78
2019-05-26T10:37:02.177Z,996.83
2019-05-26T10:38:02.171Z,996.99
2019-05-26T10:39:02.193Z,996.93
2019-05-26T10:40:02.149Z,996.89
2019-05-26T10:41:02.206Z,996.94
2019-05-26T10:42:02.125Z,996.94
2019-05-26T10:43:02.136Z,996.87
2019-05-26T10:44:02.104Z,996.91
2019-05-26T10:45:02.199Z,996.90
2019-05-26T10:46:02.084Z,996.86
2019-05-26T10:47:02.317Z,996.77
2019-05-26T10:48:02.061Z,996.86
2019-05-26T10:49:02.069Z,996.87
2019-05-26T10:50:02.042Z,996.92
2019-05-26T10:51:02.032Z,996.85
2019-05-26T10:52:02.024Z,996.77
2019-05-26T10:53:02.104Z,996.90
2019-05-26T10:54:01.996Z,996.84
2019-05-26T10:55:01.989Z,996.89
2019-05-26T10:56:01.976Z,996.81
2019-05-26T10:57:01.965Z,996.83
2019-05-26T10:58:02.011Z,996.82
2019-05-26T10:59:02.083Z,996.82
2019-05-26T11:00:02.209Z,996.82
2019-05-26T11:01:01.986Z,996.75
2019-05-26T11:02:01.915Z,996.74
2019-05-26T11:03:01.900Z,996.78
2019-05-26T11:04:01.919Z,996.73
2019-05-26T11:05:01.942Z,996.75
2019-05-26T11:06:01.974Z,996.69
2019-05-26T11:07:01.901Z,996.71
2019-05-26T11:08:01.867Z,996.69
2019-05-26T11:09:01.841Z,996.68
2019-05-26T11:10:01.971Z,996.74
2019-05-26T11:11:02.032Z,996.68
2019-05-26T11:12:01.807Z,996.57
2019-05-26T11:13:01.798Z,996.68
2019-05-26T11:14:03.434Z,996.64
2019-05-26T11:15:01.795Z,996.71
2019-05-26T11:16:01.766Z,996.72
2019-05-26T11:17:01.963Z,996.52
2019-05-26T11:18:01.746Z,996.57
2019-05-26T11:19:01.738Z,996.63
2019-05-26T11:20:01.763Z,996.53
2019-05-26T11:21:01.716Z,996.50
2019-05-26T11:22:01.742Z,996.43
2019-05-26T11:23:01.882Z,996.45
2019-05-26T11:24:01.696Z,996.51
2019-05-26T11:25:01.670Z,996.53
2019-05-26T11:26:01.662Z,996.70
2019-05-26T11:27:10.145Z,996.40
2019-05-26T11:28:02.699Z,996.54
2019-05-26T11:29:01.633Z,996.48
2019-05-26T11:30:01.625Z,996.56
2019-05-26T11:31:01.604Z,996.40
2019-05-26T11:32:01.664Z,996.50
2019-05-26T11:33:01.582Z,996.49
2019-05-26T11:34:01.960Z,996.48
2019-05-26T11:35:02.369Z,996.40
2019-05-26T11:36:01.549Z,996.49
2019-05-26T11:37:01.541Z,996.46
2019-05-26T11:38:01.546Z,996.35
2019-05-26T11:39:01.546Z,996.32
2019-05-26T11:40:01.752Z,996.26
2019-05-26T11:41:01.501Z,996.29
2019-05-26T11:42:13.014Z,996.21
2019-05-26T11:43:15.645Z,996.28
2019-05-26T11:44:15.333Z,996.34
2019-05-26T11:45:02.527Z,996.28
2019-05-26T11:46:01.444Z,996.31
2019-05-26T11:47:01.435Z,996.30
2019-05-26T11:48:01.421Z,996.24
2019-05-26T11:49:01.413Z,996.26
2019-05-26T11:50:01.412Z,996.29
2019-05-26T11:51:01.455Z,996.30
2019-05-26T11:52:01.380Z,996.27
2019-05-26T11:53:01.368Z,996.14
2019-05-26T11:54:01.357Z,996.20
2019-05-26T11:55:01.352Z,996.23
2019-05-26T11:56:01.338Z,996.29
2019-05-26T11:57:01.396Z,996.18
2019-05-26T11:58:01.315Z,996.18
2019-05-26T11:59:01.305Z,996.17
2019-05-26T12:00:01.435Z,996.20
2019-05-26T12:01:01.291Z,996.21
2019-05-26T12:02:01.279Z,996.19
2019-05-26T12:03:01.475Z,996.14
2019-05-26T12:04:01.254Z,996.10
2019-05-26T12:05:01.251Z,996.05
2019-05-26T12:06:01.315Z,996.03
2019-05-26T12:07:04.354Z,996.18
2019-05-26T12:08:01.291Z,996.13
2019-05-26T12:09:01.337Z,996.10
2019-05-26T12:10:01.245Z,996.17
2019-05-26T12:11:01.179Z,996.11
2019-05-26T12:12:01.186Z,996.00
2019-05-26T12:13:01.163Z,996.09
2019-05-26T12:14:01.146Z,996.12
2019-05-26T12:15:01.210Z,996.08
2019-05-26T12:16:01.129Z,996.01
2019-05-26T12:17:01.112Z,995.92
2019-05-26T12:18:01.102Z,995.99
2019-05-26T12:19:01.095Z,995.99
2019-05-26T12:20:04.913Z,995.97
2019-05-26T12:21:01.132Z,996.03
2019-05-26T12:22:01.059Z,996.12
2019-05-26T12:23:01.049Z,995.98
2019-05-26T12:24:01.037Z,996.06
2019-05-26T12:25:01.027Z,996.03
2019-05-26T12:26:01.020Z,996.02
2019-05-26T12:27:01.071Z,996.07
2019-05-26T12:28:01.043Z,995.90